sensor_id;sensor_type;location;lat;lon;timestamp;P1;durP1;ratioP1;P2;durP2;ratioP2
9150;SDS011;4610;50.006;7.490;2023-04-25T00:02:07;4.20;;;3.63;;
9150;SDS011;4610;50.006;7.490;2023-04-25T00:04:34;4.17;;;3.50;;
9150;SDS011;4610;50.006;7.490;2023-04-25T00:07:04;5.87;;;4.10;;
9150;SDS011;4610;50.006;7.490;2023-04-25T00:09:31;5.73;;;4.10;;
9150;SDS011;4610;50.006;7.490;2023-04-25T00:11:58;5.60;;;4.00;;
9150;SDS011;4610;50.006;7.490;2023-04-25T00:14:26;6.10;;;3.83;;
9150;SDS011;4610;50.006;7.490;2023-04-25T00:16:53;7.30;;;4.20;;
9150;SDS011;4610;50.006;7.490;2023-04-25T00:19:21;6.30;;;4.13;;
9150;SDS011;4610;50.006;7.490;2023-04-25T00:21:47;4.73;;;3.83;;
9150;SDS011;4610;50.006;7.490;2023-04-25T00:24:16;6.40;;;4.27;;
9150;SDS011;4610;50.006;7.490;2023-04-25T00:26:43;4.37;;;3.70;;
9150;SDS011;4610;50.006;7.490;2023-04-25T00:29:09;5.00;;;3.60;;
9150;SDS011;4610;50.006;7.490;2023-04-25T00:31:36;4.80;;;3.73;;
9150;SDS011;4610;50.006;7.490;2023-04-25T00:34:03;5.97;;;3.83;;
9150;SDS011;4610;50.006;7.490;2023-04-25T00:36:30;5.70;;;4.13;;
9150;SDS011;4610;50.006;7.490;2023-04-25T00:38:56;4.93;;;3.93;;
9150;SDS011;4610;50.006;7.490;2023-04-25T00:41:25;5.93;;;4.50;;
9150;SDS011;4610;50.006;7.490;2023-04-25T00:43:52;6.83;;;4.40;;
9150;SDS011;4610;50.006;7.490;2023-04-25T00:46:20;5.73;;;4.43;;
9150;SDS011;4610;50.006;7.490;2023-04-25T00:48:47;5.93;;;4.40;;
9150;SDS011;4610;50.006;7.490;2023-04-25T00:51:16;7.77;;;3.90;;
9150;SDS011;4610;50.006;7.490;2023-04-25T00:53:45;6.47;;;4.53;;
9150;SDS011;4610;50.006;7.490;2023-04-25T00:56:13;7.30;;;4.57;;
9150;SDS011;4610;50.006;7.490;2023-04-25T00:58:41;6.47;;;4.20;;
9150;SDS011;4610;50.006;7.490;2023-04-25T01:01:08;6.53;;;4.33;;
9150;SDS011;4610;50.006;7.490;2023-04-25T01:03:37;5.73;;;4.43;;
9150;SDS011;4610;50.006;7.490;2023-04-25T01:06:06;5.53;;;4.00;;
9150;SDS011;4610;50.006;7.490;2023-04-25T01:08:34;7.13;;;4.77;;
9150;SDS011;4610;50.006;7.490;2023-04-25T01:11:01;5.50;;;4.10;;
9150;SDS011;4610;50.006;7.490;2023-04-25T01:13:29;4.57;;;3.77;;
9150;SDS011;4610;50.006;7.490;2023-04-25T01:15:58;6.20;;;4.00;;
9150;SDS011;4610;50.006;7.490;2023-04-25T01:18:25;4.47;;;3.60;;
9150;SDS011;4610;50.006;7.490;2023-04-25T01:20:52;4.13;;;3.63;;
9150;SDS011;4610;50.006;7.490;2023-04-25T01:23:22;4.67;;;3.30;;
9150;SDS011;4610;50.006;7.490;2023-04-25T01:25:49;4.90;;;3.90;;
9150;SDS011;4610;50.006;7.490;2023-04-25T01:28:16;5.53;;;4.33;;
9150;SDS011;4610;50.006;7.490;2023-04-25T01:30:43;5.57;;;4.20;;
9150;SDS011;4610;50.006;7.490;2023-04-25T01:33:11;6.13;;;4.40;;
9150;SDS011;4610;50.006;7.490;2023-04-25T01:35:39;6.13;;;4.50;;
9150;SDS011;4610;50.006;7.490;2023-04-25T01:38:06;5.83;;;4.07;;
9150;SDS011;4610;50.006;7.490;2023-04-25T01:40:35;7.50;;;4.97;;
9150;SDS011;4610;50.006;7.490;2023-04-25T01:43:06;15.53;;;7.70;;
9150;SDS011;4610;50.006;7.490;2023-04-25T01:45:36;7.07;;;5.17;;
9150;SDS011;4610;50.006;7.490;2023-04-25T01:48:04;6.40;;;4.83;;
9150;SDS011;4610;50.006;7.490;2023-04-25T01:50:31;9.13;;;5.00;;
9150;SDS011;4610;50.006;7.490;2023-04-25T01:52:58;6.70;;;5.10;;
9150;SDS011;4610;50.006;7.490;2023-04-25T01:55:26;12.70;;;7.17;;
9150;SDS011;4610;50.006;7.490;2023-04-25T01:57:55;6.20;;;4.83;;
9150;SDS011;4610;50.006;7.490;2023-04-25T02:00:22;6.30;;;4.60;;
9150;SDS011;4610;50.006;7.490;2023-04-25T02:02:49;5.13;;;4.30;;
9150;SDS011;4610;50.006;7.490;2023-04-25T02:05:18;6.27;;;4.10;;
9150;SDS011;4610;50.006;7.490;2023-04-25T02:07:45;5.37;;;4.20;;
9150;SDS011;4610;50.006;7.490;2023-04-25T02:10:14;5.63;;;3.80;;
9150;SDS011;4610;50.006;7.490;2023-04-25T02:12:41;5.20;;;3.93;;
9150;SDS011;4610;50.006;7.490;2023-04-25T02:15:09;6.10;;;4.20;;
9150;SDS011;4610;50.006;7.490;2023-04-25T02:17:36;5.40;;;4.07;;
9150;SDS011;4610;50.006;7.490;2023-04-25T02:20:04;5.67;;;4.30;;
9150;SDS011;4610;50.006;7.490;2023-04-25T02:22:31;7.00;;;4.63;;
9150;SDS011;4610;50.006;7.490;2023-04-25T02:24:59;6.50;;;4.67;;
9150;SDS011;4610;50.006;7.490;2023-04-25T02:27:25;7.47;;;4.77;;
9150;SDS011;4610;50.006;7.490;2023-04-25T02:29:52;6.70;;;4.57;;
9150;SDS011;4610;50.006;7.490;2023-04-25T02:32:20;8.00;;;5.07;;
9150;SDS011;4610;50.006;7.490;2023-04-25T02:34:47;8.87;;;5.90;;
9150;SDS011;4610;50.006;7.490;2023-04-25T02:37:14;8.63;;;5.33;;
9150;SDS011;4610;50.006;7.490;2023-04-25T02:39:40;5.90;;;4.60;;
9150;SDS011;4610;50.006;7.490;2023-04-25T02:42:07;5.30;;;4.17;;
9150;SDS011;4610;50.006;7.490;2023-04-25T02:44:34;7.90;;;5.00;;
9150;SDS011;4610;50.006;7.490;2023-04-25T02:47:01;7.20;;;5.17;;
9150;SDS011;4610;50.006;7.490;2023-04-25T02:49:29;8.50;;;4.83;;
9150;SDS011;4610;50.006;7.490;2023-04-25T02:51:55;6.87;;;4.83;;
9150;SDS011;4610;50.006;7.490;2023-04-25T02:54:22;6.40;;;4.73;;
9150;SDS011;4610;50.006;7.490;2023-04-25T02:56:49;6.57;;;4.40;;
9150;SDS011;4610;50.006;7.490;2023-04-25T02:59:16;6.03;;;4.83;;
9150;SDS011;4610;50.006;7.490;2023-04-25T03:01:43;5.70;;;4.83;;
9150;SDS011;4610;50.006;7.490;2023-04-25T03:04:10;7.57;;;4.80;;
9150;SDS011;4610;50.006;7.490;2023-04-25T03:06:38;8.20;;;4.90;;
9150;SDS011;4610;50.006;7.490;2023-04-25T03:09:05;6.57;;;4.50;;
9150;SDS011;4610;50.006;7.490;2023-04-25T03:11:32;5.00;;;3.87;;
9150;SDS011;4610;50.006;7.490;2023-04-25T03:13:58;4.00;;;3.23;;
9150;SDS011;4610;50.006;7.490;2023-04-25T03:16:25;5.03;;;3.17;;
9150;SDS011;4610;50.006;7.490;2023-04-25T03:18:52;5.77;;;4.07;;
9150;SDS011;4610;50.006;7.490;2023-04-25T03:21:19;4.47;;;3.80;;
9150;SDS011;4610;50.006;7.490;2023-04-25T03:23:47;6.67;;;4.67;;
9150;SDS011;4610;50.006;7.490;2023-04-25T03:26:14;5.77;;;4.17;;
9150;SDS011;4610;50.006;7.490;2023-04-25T03:28:40;5.90;;;4.03;;
9150;SDS011;4610;50.006;7.490;2023-04-25T03:31:07;5.83;;;4.20;;
9150;SDS011;4610;50.006;7.490;2023-04-25T03:33:34;17.90;;;4.47;;
9150;SDS011;4610;50.006;7.490;2023-04-25T03:36:01;85.60;;;6.70;;
9150;SDS011;4610;50.006;7.490;2023-04-25T03:38:28;54.73;;;4.77;;
9150;SDS011;4610;50.006;7.490;2023-04-25T03:40:56;31.40;;;4.37;;
9150;SDS011;4610;50.006;7.490;2023-04-25T03:43:23;10.23;;;4.00;;
9150;SDS011;4610;50.006;7.490;2023-04-25T03:45:50;13.33;;;4.43;;
9150;SDS011;4610;50.006;7.490;2023-04-25T03:48:17;58.27;;;6.70;;
9150;SDS011;4610;50.006;7.490;2023-04-25T03:50:46;11.40;;;4.60;;
9150;SDS011;4610;50.006;7.490;2023-04-25T03:53:13;9.60;;;4.60;;
9150;SDS011;4610;50.006;7.490;2023-04-25T03:55:39;8.47;;;4.97;;
9150;SDS011;4610;50.006;7.490;2023-04-25T03:58:08;6.33;;;5.07;;
9150;SDS011;4610;50.006;7.490;2023-04-25T04:00:34;7.43;;;4.97;;
9150;SDS011;4610;50.006;7.490;2023-04-25T04:03:01;7.93;;;4.87;;
9150;SDS011;4610;50.006;7.490;2023-04-25T04:05:28;31.10;;;7.50;;
9150;SDS011;4610;50.006;7.490;2023-04-25T04:07:56;34.90;;;6.40;;
9150;SDS011;4610;50.006;7.490;2023-04-25T04:10:22;22.40;;;6.17;;
9150;SDS011;4610;50.006;7.490;2023-04-25T04:12:51;8.93;;;6.40;;
9150;SDS011;4610;50.006;7.490;2023-04-25T04:15:19;8.53;;;5.97;;
9150;SDS011;4610;50.006;7.490;2023-04-25T04:17:46;9.40;;;5.93;;
9150;SDS011;4610;50.006;7.490;2023-04-25T04:20:14;9.60;;;6.23;;
9150;SDS011;4610;50.006;7.490;2023-04-25T04:22:40;10.30;;;6.50;;
9150;SDS011;4610;50.006;7.490;2023-04-25T04:25:08;9.30;;;6.37;;
9150;SDS011;4610;50.006;7.490;2023-04-25T04:27:36;9.83;;;5.90;;
9150;SDS011;4610;50.006;7.490;2023-04-25T04:30:04;14.73;;;8.13;;
9150;SDS011;4610;50.006;7.490;2023-04-25T04:32:33;11.87;;;7.63;;
9150;SDS011;4610;50.006;7.490;2023-04-25T04:35:02;11.37;;;7.57;;
9150;SDS011;4610;50.006;7.490;2023-04-25T04:37:31;11.77;;;7.43;;
9150;SDS011;4610;50.006;7.490;2023-04-25T04:39:58;12.73;;;7.20;;
9150;SDS011;4610;50.006;7.490;2023-04-25T04:42:26;15.33;;;6.70;;
9150;SDS011;4610;50.006;7.490;2023-04-25T04:44:53;11.13;;;6.37;;
9150;SDS011;4610;50.006;7.490;2023-04-25T04:47:20;11.20;;;6.53;;
9150;SDS011;4610;50.006;7.490;2023-04-25T04:49:50;9.43;;;5.93;;
9150;SDS011;4610;50.006;7.490;2023-04-25T04:52:16;14.00;;;6.63;;
9150;SDS011;4610;50.006;7.490;2023-04-25T04:54:43;9.83;;;5.90;;
9150;SDS011;4610;50.006;7.490;2023-04-25T04:57:10;11.57;;;6.70;;
9150;SDS011;4610;50.006;7.490;2023-04-25T04:59:37;13.83;;;6.30;;
9150;SDS011;4610;50.006;7.490;2023-04-25T05:02:04;13.10;;;6.93;;
9150;SDS011;4610;50.006;7.490;2023-04-25T05:04:30;11.63;;;7.00;;
9150;SDS011;4610;50.006;7.490;2023-04-25T05:06:58;12.57;;;6.90;;
9150;SDS011;4610;50.006;7.490;2023-04-25T05:09:26;10.83;;;6.50;;
9150;SDS011;4610;50.006;7.490;2023-04-25T05:11:53;13.77;;;6.27;;
9150;SDS011;4610;50.006;7.490;2023-04-25T05:14:20;16.53;;;6.20;;
9150;SDS011;4610;50.006;7.490;2023-04-25T05:16:46;14.27;;;6.77;;
9150;SDS011;4610;50.006;7.490;2023-04-25T05:19:13;15.30;;;7.63;;
9150;SDS011;4610;50.006;7.490;2023-04-25T05:21:40;11.57;;;6.50;;
9150;SDS011;4610;50.006;7.490;2023-04-25T05:24:09;15.70;;;6.60;;
9150;SDS011;4610;50.006;7.490;2023-04-25T05:26:36;10.97;;;6.93;;
9150;SDS011;4610;50.006;7.490;2023-04-25T05:29:03;12.77;;;6.03;;
9150;SDS011;4610;50.006;7.490;2023-04-25T05:31:30;14.37;;;7.13;;
9150;SDS011;4610;50.006;7.490;2023-04-25T05:33:57;12.40;;;5.40;;
9150;SDS011;4610;50.006;7.490;2023-04-25T05:36:24;10.00;;;6.23;;
9150;SDS011;4610;50.006;7.490;2023-04-25T05:38:51;14.67;;;6.67;;
9150;SDS011;4610;50.006;7.490;2023-04-25T05:41:19;4.77;;;3.30;;
9150;SDS011;4610;50.006;7.490;2023-04-25T05:43:46;13.70;;;7.80;;
9150;SDS011;4610;50.006;7.490;2023-04-25T05:46:14;20.33;;;9.60;;
9150;SDS011;4610;50.006;7.490;2023-04-25T05:48:42;19.53;;;6.47;;
9150;SDS011;4610;50.006;7.490;2023-04-25T05:51:09;9.10;;;5.30;;
9150;SDS011;4610;50.006;7.490;2023-04-25T05:53:36;10.23;;;5.20;;
9150;SDS011;4610;50.006;7.490;2023-04-25T05:56:02;22.70;;;6.23;;
9150;SDS011;4610;50.006;7.490;2023-04-25T05:58:31;11.67;;;5.43;;
9150;SDS011;4610;50.006;7.490;2023-04-25T06:00:58;12.17;;;4.67;;
9150;SDS011;4610;50.006;7.490;2023-04-25T06:03:24;13.77;;;4.33;;
9150;SDS011;4610;50.006;7.490;2023-04-25T06:05:51;13.53;;;4.60;;
9150;SDS011;4610;50.006;7.490;2023-04-25T06:08:18;10.53;;;4.23;;
9150;SDS011;4610;50.006;7.490;2023-04-25T06:10:45;7.63;;;4.10;;
9150;SDS011;4610;50.006;7.490;2023-04-25T06:13:12;10.33;;;3.90;;
9150;SDS011;4610;50.006;7.490;2023-04-25T06:15:40;11.20;;;4.73;;
9150;SDS011;4610;50.006;7.490;2023-04-25T06:18:07;11.47;;;4.20;;
9150;SDS011;4610;50.006;7.490;2023-04-25T06:20:34;9.17;;;4.17;;
9150;SDS011;4610;50.006;7.490;2023-04-25T06:23:00;9.40;;;3.50;;
9150;SDS011;4610;50.006;7.490;2023-04-25T06:25:27;11.50;;;3.93;;
9150;SDS011;4610;50.006;7.490;2023-04-25T06:27:54;9.77;;;3.17;;
9150;SDS011;4610;50.006;7.490;2023-04-25T06:30:21;8.17;;;3.87;;
9150;SDS011;4610;50.006;7.490;2023-04-25T06:32:51;12.33;;;3.50;;
9150;SDS011;4610;50.006;7.490;2023-04-25T06:35:19;5.70;;;3.27;;
9150;SDS011;4610;50.006;7.490;2023-04-25T06:37:46;8.43;;;3.30;;
9150;SDS011;4610;50.006;7.490;2023-04-25T06:40:12;8.70;;;3.30;;
9150;SDS011;4610;50.006;7.490;2023-04-25T06:42:39;8.13;;;3.13;;
9150;SDS011;4610;50.006;7.490;2023-04-25T06:45:07;7.23;;;3.60;;
9150;SDS011;4610;50.006;7.490;2023-04-25T06:47:34;6.10;;;3.10;;
9150;SDS011;4610;50.006;7.490;2023-04-25T06:50:02;8.20;;;3.10;;
9150;SDS011;4610;50.006;7.490;2023-04-25T06:52:30;8.33;;;3.70;;
9150;SDS011;4610;50.006;7.490;2023-04-25T06:54:57;8.23;;;3.00;;
9150;SDS011;4610;50.006;7.490;2023-04-25T06:57:24;4.67;;;3.10;;
9150;SDS011;4610;50.006;7.490;2023-04-25T06:59:51;9.90;;;3.13;;
9150;SDS011;4610;50.006;7.490;2023-04-25T07:02:17;12.17;;;3.10;;
9150;SDS011;4610;50.006;7.490;2023-04-25T07:04:46;10.07;;;3.50;;
9150;SDS011;4610;50.006;7.490;2023-04-25T07:07:14;5.40;;;3.20;;
9150;SDS011;4610;50.006;7.490;2023-04-25T07:09:42;6.60;;;3.10;;
9150;SDS011;4610;50.006;7.490;2023-04-25T07:12:08;9.87;;;3.07;;
9150;SDS011;4610;50.006;7.490;2023-04-25T07:14:35;10.40;;;3.60;;
9150;SDS011;4610;50.006;7.490;2023-04-25T07:17:02;12.47;;;4.37;;
9150;SDS011;4610;50.006;7.490;2023-04-25T07:19:31;9.67;;;3.80;;
9150;SDS011;4610;50.006;7.490;2023-04-25T07:21:58;7.00;;;3.37;;
9150;SDS011;4610;50.006;7.490;2023-04-25T07:24:26;15.03;;;4.00;;
9150;SDS011;4610;50.006;7.490;2023-04-25T07:26:53;6.73;;;3.13;;
9150;SDS011;4610;50.006;7.490;2023-04-25T07:29:20;5.80;;;3.03;;
9150;SDS011;4610;50.006;7.490;2023-04-25T07:31:47;11.30;;;3.17;;
9150;SDS011;4610;50.006;7.490;2023-04-25T07:34:13;6.80;;;3.43;;
9150;SDS011;4610;50.006;7.490;2023-04-25T07:36:40;11.87;;;3.80;;
9150;SDS011;4610;50.006;7.490;2023-04-25T07:39:07;5.63;;;2.97;;
9150;SDS011;4610;50.006;7.490;2023-04-25T07:41:35;7.90;;;3.30;;
9150;SDS011;4610;50.006;7.490;2023-04-25T07:44:02;13.03;;;4.10;;
9150;SDS011;4610;50.006;7.490;2023-04-25T07:46:29;8.70;;;3.50;;
9150;SDS011;4610;50.006;7.490;2023-04-25T07:48:56;4.93;;;2.90;;
9150;SDS011;4610;50.006;7.490;2023-04-25T07:51:22;8.43;;;3.20;;
9150;SDS011;4610;50.006;7.490;2023-04-25T07:53:49;8.77;;;3.00;;
9150;SDS011;4610;50.006;7.490;2023-04-25T07:56:16;6.30;;;3.40;;
9150;SDS011;4610;50.006;7.490;2023-04-25T07:58:44;6.03;;;3.27;;
9150;SDS011;4610;50.006;7.490;2023-04-25T08:01:11;8.67;;;3.77;;
9150;SDS011;4610;50.006;7.490;2023-04-25T08:03:38;6.03;;;3.33;;
9150;SDS011;4610;50.006;7.490;2023-04-25T08:06:05;6.80;;;2.90;;
9150;SDS011;4610;50.006;7.490;2023-04-25T08:08:32;4.70;;;2.50;;
9150;SDS011;4610;50.006;7.490;2023-04-25T08:10:58;4.30;;;2.83;;
9150;SDS011;4610;50.006;7.490;2023-04-25T08:13:25;9.07;;;2.90;;
9150;SDS011;4610;50.006;7.490;2023-04-25T08:15:53;5.00;;;2.50;;
9150;SDS011;4610;50.006;7.490;2023-04-25T08:18:20;5.13;;;3.30;;
9150;SDS011;4610;50.006;7.490;2023-04-25T08:20:47;6.30;;;3.07;;
9150;SDS011;4610;50.006;7.490;2023-04-25T08:23:14;9.40;;;3.40;;
9150;SDS011;4610;50.006;7.490;2023-04-25T08:25:41;5.87;;;3.13;;
9150;SDS011;4610;50.006;7.490;2023-04-25T08:28:07;9.20;;;3.27;;
9150;SDS011;4610;50.006;7.490;2023-04-25T08:30:34;4.80;;;3.00;;
9150;SDS011;4610;50.006;7.490;2023-04-25T08:33:04;7.73;;;3.37;;
9150;SDS011;4610;50.006;7.490;2023-04-25T08:35:31;5.43;;;3.43;;
9150;SDS011;4610;50.006;7.490;2023-04-25T08:37:59;8.03;;;3.40;;
9150;SDS011;4610;50.006;7.490;2023-04-25T08:40:26;13.00;;;4.77;;
9150;SDS011;4610;50.006;7.490;2023-04-25T08:42:55;6.83;;;3.30;;
9150;SDS011;4610;50.006;7.490;2023-04-25T08:45:23;8.37;;;3.97;;
9150;SDS011;4610;50.006;7.490;2023-04-25T08:47:53;8.20;;;4.33;;
9150;SDS011;4610;50.006;7.490;2023-04-25T08:50:24;8.90;;;4.30;;
9150;SDS011;4610;50.006;7.490;2023-04-25T08:52:51;10.23;;;4.43;;
9150;SDS011;4610;50.006;7.490;2023-04-25T08:55:20;7.53;;;3.97;;
9150;SDS011;4610;50.006;7.490;2023-04-25T08:57:48;10.60;;;4.40;;
9150;SDS011;4610;50.006;7.490;2023-04-25T09:00:16;15.10;;;3.70;;
9150;SDS011;4610;50.006;7.490;2023-04-25T09:02:44;7.10;;;3.90;;
9150;SDS011;4610;50.006;7.490;2023-04-25T09:05:12;13.17;;;4.30;;
9150;SDS011;4610;50.006;7.490;2023-04-25T09:07:41;7.40;;;3.67;;
9150;SDS011;4610;50.006;7.490;2023-04-25T09:10:08;10.33;;;4.27;;
9150;SDS011;4610;50.006;7.490;2023-04-25T09:12:35;8.90;;;3.97;;
9150;SDS011;4610;50.006;7.490;2023-04-25T09:15:03;10.10;;;3.90;;
9150;SDS011;4610;50.006;7.490;2023-04-25T09:17:32;16.93;;;4.53;;
9150;SDS011;4610;50.006;7.490;2023-04-25T09:20:05;5.00;;;3.17;;
9150;SDS011;4610;50.006;7.490;2023-04-25T09:22:34;11.43;;;4.30;;
9150;SDS011;4610;50.006;7.490;2023-04-25T09:25:03;6.23;;;4.23;;
9150;SDS011;4610;50.006;7.490;2023-04-25T09:27:34;7.73;;;3.47;;
9150;SDS011;4610;50.006;7.490;2023-04-25T09:30:01;9.80;;;4.20;;
9150;SDS011;4610;50.006;7.490;2023-04-25T09:32:29;7.10;;;3.57;;
9150;SDS011;4610;50.006;7.490;2023-04-25T09:34:56;6.37;;;3.20;;
9150;SDS011;4610;50.006;7.490;2023-04-25T09:37:24;10.40;;;3.83;;
9150;SDS011;4610;50.006;7.490;2023-04-25T09:39:53;9.80;;;3.77;;
9150;SDS011;4610;50.006;7.490;2023-04-25T09:42:23;8.93;;;3.67;;
9150;SDS011;4610;50.006;7.490;2023-04-25T09:44:52;7.03;;;3.90;;
9150;SDS011;4610;50.006;7.490;2023-04-25T09:47:20;8.63;;;3.70;;
9150;SDS011;4610;50.006;7.490;2023-04-25T09:49:48;7.30;;;3.67;;
9150;SDS011;4610;50.006;7.490;2023-04-25T09:52:16;8.53;;;4.07;;
9150;SDS011;4610;50.006;7.490;2023-04-25T09:54:44;13.97;;;3.90;;
9150;SDS011;4610;50.006;7.490;2023-04-25T09:57:12;9.57;;;3.60;;
9150;SDS011;4610;50.006;7.490;2023-04-25T09:59:42;8.53;;;3.70;;
9150;SDS011;4610;50.006;7.490;2023-04-25T10:02:10;8.93;;;3.50;;
9150;SDS011;4610;50.006;7.490;2023-04-25T10:04:38;8.07;;;3.70;;
9150;SDS011;4610;50.006;7.490;2023-04-25T10:07:05;9.07;;;3.20;;
9150;SDS011;4610;50.006;7.490;2023-04-25T10:09:33;11.87;;;3.33;;
9150;SDS011;4610;50.006;7.490;2023-04-25T10:12:03;7.47;;;2.60;;
9150;SDS011;4610;50.006;7.490;2023-04-25T10:14:31;7.00;;;3.27;;
9150;SDS011;4610;50.006;7.490;2023-04-25T10:16:59;8.97;;;3.77;;
9150;SDS011;4610;50.006;7.490;2023-04-25T10:19:27;8.47;;;3.57;;
9150;SDS011;4610;50.006;7.490;2023-04-25T10:21:55;12.47;;;3.10;;
9150;SDS011;4610;50.006;7.490;2023-04-25T10:24:29;6.87;;;3.03;;
9150;SDS011;4610;50.006;7.490;2023-04-25T10:26:56;8.73;;;3.50;;
9150;SDS011;4610;50.006;7.490;2023-04-25T10:29:23;10.43;;;3.37;;
9150;SDS011;4610;50.006;7.490;2023-04-25T10:31:51;7.90;;;3.17;;
9150;SDS011;4610;50.006;7.490;2023-04-25T10:34:23;13.23;;;3.20;;
9150;SDS011;4610;50.006;7.490;2023-04-25T10:36:52;6.13;;;2.57;;
9150;SDS011;4610;50.006;7.490;2023-04-25T10:39:22;8.30;;;3.10;;
9150;SDS011;4610;50.006;7.490;2023-04-25T10:41:53;8.17;;;2.77;;
9150;SDS011;4610;50.006;7.490;2023-04-25T10:44:22;9.50;;;2.97;;
9150;SDS011;4610;50.006;7.490;2023-04-25T10:46:52;3.73;;;2.20;;
9150;SDS011;4610;50.006;7.490;2023-04-25T10:49:31;7.10;;;2.10;;
9150;SDS011;4610;50.006;7.490;2023-04-25T10:52:12;3.90;;;2.33;;
9150;SDS011;4610;50.006;7.490;2023-04-25T10:54:52;6.30;;;2.60;;
9150;SDS011;4610;50.006;7.490;2023-04-25T10:57:30;6.90;;;3.03;;
9150;SDS011;4610;50.006;7.490;2023-04-25T11:00:05;8.00;;;3.00;;
9150;SDS011;4610;50.006;7.490;2023-04-25T11:02:38;8.80;;;2.47;;
9150;SDS011;4610;50.006;7.490;2023-04-25T11:05:09;9.60;;;2.83;;
9150;SDS011;4610;50.006;7.490;2023-04-25T11:07:44;12.67;;;2.80;;
9150;SDS011;4610;50.006;7.490;2023-04-25T11:10:15;5.33;;;2.83;;
9150;SDS011;4610;50.006;7.490;2023-04-25T11:12:42;8.90;;;2.50;;
9150;SDS011;4610;50.006;7.490;2023-04-25T11:15:10;5.50;;;2.27;;
9150;SDS011;4610;50.006;7.490;2023-04-25T11:17:38;8.90;;;2.47;;
9150;SDS011;4610;50.006;7.490;2023-04-25T11:20:06;7.10;;;2.37;;
9150;SDS011;4610;50.006;7.490;2023-04-25T11:22:37;3.80;;;2.07;;
9150;SDS011;4610;50.006;7.490;2023-04-25T11:25:07;9.97;;;2.60;;
9150;SDS011;4610;50.006;7.490;2023-04-25T11:27:37;7.67;;;2.27;;
9150;SDS011;4610;50.006;7.490;2023-04-25T11:30:12;6.67;;;2.40;;
9150;SDS011;4610;50.006;7.490;2023-04-25T11:32:41;4.53;;;2.10;;
9150;SDS011;4610;50.006;7.490;2023-04-25T11:35:08;6.87;;;2.13;;
9150;SDS011;4610;50.006;7.490;2023-04-25T11:37:35;11.80;;;2.57;;
9150;SDS011;4610;50.006;7.490;2023-04-25T11:40:04;6.33;;;2.60;;
9150;SDS011;4610;50.006;7.490;2023-04-25T11:42:33;5.30;;;2.53;;
9150;SDS011;4610;50.006;7.490;2023-04-25T11:45:02;5.33;;;2.00;;
9150;SDS011;4610;50.006;7.490;2023-04-25T11:47:30;4.40;;;1.97;;
9150;SDS011;4610;50.006;7.490;2023-04-25T11:49:58;5.80;;;2.27;;
9150;SDS011;4610;50.006;7.490;2023-04-25T11:52:34;5.67;;;2.20;;
9150;SDS011;4610;50.006;7.490;2023-04-25T11:55:05;8.87;;;2.23;;
9150;SDS011;4610;50.006;7.490;2023-04-25T11:57:33;6.87;;;2.43;;
9150;SDS011;4610;50.006;7.490;2023-04-25T12:00:07;10.20;;;2.57;;
9150;SDS011;4610;50.006;7.490;2023-04-25T12:02:36;5.40;;;2.13;;
9150;SDS011;4610;50.006;7.490;2023-04-25T12:05:05;7.30;;;2.40;;
9150;SDS011;4610;50.006;7.490;2023-04-25T12:07:33;5.40;;;2.17;;
9150;SDS011;4610;50.006;7.490;2023-04-25T12:10:03;7.47;;;2.50;;
9150;SDS011;4610;50.006;7.490;2023-04-25T12:12:33;7.23;;;2.80;;
9150;SDS011;4610;50.006;7.490;2023-04-25T12:15:10;8.83;;;2.37;;
9150;SDS011;4610;50.006;7.490;2023-04-25T12:17:40;6.57;;;2.40;;
9150;SDS011;4610;50.006;7.490;2023-04-25T12:20:08;5.73;;;2.50;;
9150;SDS011;4610;50.006;7.490;2023-04-25T12:22:36;8.67;;;2.60;;
9150;SDS011;4610;50.006;7.490;2023-04-25T12:25:03;7.40;;;2.40;;
9150;SDS011;4610;50.006;7.490;2023-04-25T12:27:32;8.17;;;2.93;;
9150;SDS011;4610;50.006;7.490;2023-04-25T12:30:01;3.43;;;1.90;;
9150;SDS011;4610;50.006;7.490;2023-04-25T12:32:28;6.30;;;2.47;;
9150;SDS011;4610;50.006;7.490;2023-04-25T12:34:56;7.27;;;2.20;;
9150;SDS011;4610;50.006;7.490;2023-04-25T12:37:22;7.70;;;2.40;;
9150;SDS011;4610;50.006;7.490;2023-04-25T12:39:49;6.23;;;2.33;;
9150;SDS011;4610;50.006;7.490;2023-04-25T12:42:18;6.67;;;1.90;;
9150;SDS011;4610;50.006;7.490;2023-04-25T12:44:44;8.70;;;1.97;;
9150;SDS011;4610;50.006;7.490;2023-04-25T12:47:11;6.93;;;1.80;;
9150;SDS011;4610;50.006;7.490;2023-04-25T12:49:38;7.93;;;2.00;;
9150;SDS011;4610;50.006;7.490;2023-04-25T12:52:05;4.57;;;1.83;;
9150;SDS011;4610;50.006;7.490;2023-04-25T12:54:32;2.07;;;1.63;;
9150;SDS011;4610;50.006;7.490;2023-04-25T12:56:59;6.70;;;1.80;;
9150;SDS011;4610;50.006;7.490;2023-04-25T12:59:29;2.93;;;1.90;;
9150;SDS011;4610;50.006;7.490;2023-04-25T13:01:55;6.13;;;2.10;;
9150;SDS011;4610;50.006;7.490;2023-04-25T13:04:22;8.10;;;2.00;;
9150;SDS011;4610;50.006;7.490;2023-04-25T13:06:49;5.23;;;1.90;;
9150;SDS011;4610;50.006;7.490;2023-04-25T13:09:16;7.27;;;1.90;;
9150;SDS011;4610;50.006;7.490;2023-04-25T13:11:42;5.60;;;1.80;;
9150;SDS011;4610;50.006;7.490;2023-04-25T13:14:10;6.37;;;1.90;;
9150;SDS011;4610;50.006;7.490;2023-04-25T13:16:39;6.43;;;2.20;;
9150;SDS011;4610;50.006;7.490;2023-04-25T13:19:06;2.20;;;1.47;;
9150;SDS011;4610;50.006;7.490;2023-04-25T13:21:36;4.97;;;1.90;;
9150;SDS011;4610;50.006;7.490;2023-04-25T13:24:03;5.50;;;1.57;;
9150;SDS011;4610;50.006;7.490;2023-04-25T13:26:30;3.27;;;1.67;;
9150;SDS011;4610;50.006;7.490;2023-04-25T13:28:57;4.80;;;1.80;;
9150;SDS011;4610;50.006;7.490;2023-04-25T13:31:25;6.03;;;1.60;;
9150;SDS011;4610;50.006;7.490;2023-04-25T13:33:53;2.83;;;1.57;;
9150;SDS011;4610;50.006;7.490;2023-04-25T13:36:20;6.80;;;2.23;;
9150;SDS011;4610;50.006;7.490;2023-04-25T13:38:47;5.77;;;1.70;;
9150;SDS011;4610;50.006;7.490;2023-04-25T13:41:14;7.97;;;2.00;;
9150;SDS011;4610;50.006;7.490;2023-04-25T13:43:43;3.90;;;1.80;;
9150;SDS011;4610;50.006;7.490;2023-04-25T13:46:11;4.20;;;2.00;;
9150;SDS011;4610;50.006;7.490;2023-04-25T13:48:40;4.83;;;1.67;;
9150;SDS011;4610;50.006;7.490;2023-04-25T13:51:12;6.80;;;2.00;;
9150;SDS011;4610;50.006;7.490;2023-04-25T13:53:41;4.70;;;1.73;;
9150;SDS011;4610;50.006;7.490;2023-04-25T13:56:08;4.70;;;1.67;;
9150;SDS011;4610;50.006;7.490;2023-04-25T13:58:36;5.93;;;3.00;;
9150;SDS011;4610;50.006;7.490;2023-04-25T14:01:03;12.13;;;2.43;;
9150;SDS011;4610;50.006;7.490;2023-04-25T14:03:30;9.03;;;2.10;;
9150;SDS011;4610;50.006;7.490;2023-04-25T14:05:57;5.07;;;1.63;;
9150;SDS011;4610;50.006;7.490;2023-04-25T14:08:25;7.57;;;1.80;;
9150;SDS011;4610;50.006;7.490;2023-04-25T14:10:52;6.70;;;2.17;;
9150;SDS011;4610;50.006;7.490;2023-04-25T14:13:19;5.40;;;1.90;;
9150;SDS011;4610;50.006;7.490;2023-04-25T14:15:45;6.43;;;2.00;;
9150;SDS011;4610;50.006;7.490;2023-04-25T14:18:12;6.37;;;1.73;;
9150;SDS011;4610;50.006;7.490;2023-04-25T14:20:39;5.27;;;2.00;;
9150;SDS011;4610;50.006;7.490;2023-04-25T14:23:06;4.77;;;1.70;;
9150;SDS011;4610;50.006;7.490;2023-04-25T14:25:34;5.27;;;2.03;;
9150;SDS011;4610;50.006;7.490;2023-04-25T14:28:01;3.90;;;1.83;;
9150;SDS011;4610;50.006;7.490;2023-04-25T14:30:28;5.57;;;1.93;;
9150;SDS011;4610;50.006;7.490;2023-04-25T14:32:55;4.73;;;1.70;;
9150;SDS011;4610;50.006;7.490;2023-04-25T14:35:22;4.57;;;1.90;;
9150;SDS011;4610;50.006;7.490;2023-04-25T14:37:49;6.07;;;2.10;;
9150;SDS011;4610;50.006;7.490;2023-04-25T14:40:16;8.97;;;2.63;;
9150;SDS011;4610;50.006;7.490;2023-04-25T14:42:44;5.00;;;1.77;;
9150;SDS011;4610;50.006;7.490;2023-04-25T14:45:11;6.03;;;1.97;;
9150;SDS011;4610;50.006;7.490;2023-04-25T14:47:38;6.57;;;1.90;;
9150;SDS011;4610;50.006;7.490;2023-04-25T14:50:06;5.40;;;1.80;;
9150;SDS011;4610;50.006;7.490;2023-04-25T14:52:33;5.13;;;1.70;;
9150;SDS011;4610;50.006;7.490;2023-04-25T14:55:00;6.53;;;2.00;;
9150;SDS011;4610;50.006;7.490;2023-04-25T14:57:29;3.87;;;1.90;;
9150;SDS011;4610;50.006;7.490;2023-04-25T14:59:58;5.67;;;1.83;;
9150;SDS011;4610;50.006;7.490;2023-04-25T15:02:25;11.20;;;2.20;;
9150;SDS011;4610;50.006;7.490;2023-04-25T15:04:52;7.10;;;2.07;;
9150;SDS011;4610;50.006;7.490;2023-04-25T15:07:19;7.97;;;2.13;;
9150;SDS011;4610;50.006;7.490;2023-04-25T15:09:46;6.53;;;2.43;;
9150;SDS011;4610;50.006;7.490;2023-04-25T15:12:14;5.17;;;1.90;;
9150;SDS011;4610;50.006;7.490;2023-04-25T15:14:40;4.43;;;1.87;;
9150;SDS011;4610;50.006;7.490;2023-04-25T15:17:08;5.30;;;2.17;;